sensor_id;sensor_type;location;lat;lon;timestamp;temperature;humidity
25933;DHT22;13731;51.166;4.474;2023-09-07T00:01:18;20.20;75.00
25933;DHT22;13731;51.166;4.474;2023-09-07T00:03:44;20.20;27.90
25933;DHT22;13731;51.166;4.474;2023-09-07T00:06:13;20.20;1.00
25933;DHT22;13731;51.166;4.474;2023-09-07T00:08:39;20.20;1.20
25933;DHT22;13731;51.166;4.474;2023-09-07T00:11:08;20.30;1.00
25933;DHT22;13731;51.166;4.474;2023-09-07T00:13:37;20.30;21.00
25933;DHT22;13731;51.166;4.474;2023-09-07T00:16:04;20.20;1.00
25933;DHT22;13731;51.166;4.474;2023-09-07T00:18:30;20.10;13.30
25933;DHT22;13731;51.166;4.474;2023-09-07T00:20:56;20.10;11.50
25933;DHT22;13731;51.166;4.474;2023-09-07T00:23:22;20.10;1.00
25933;DHT22;13731;51.166;4.474;2023-09-07T00:25:48;20.10;1.00
25933;DHT22;13731;51.166;4.474;2023-09-07T00:28:14;20.00;18.20
25933;DHT22;13731;51.166;4.474;2023-09-07T00:30:39;20.00;26.20
25933;DHT22;13731;51.166;4.474;2023-09-07T00:33:06;20.00;50.60
25933;DHT22;13731;51.166;4.474;2023-09-07T00:35:32;20.00;56.00
25933;DHT22;13731;51.166;4.474;2023-09-07T00:37:58;20.00;50.10
25933;DHT22;13731;51.166;4.474;2023-09-07T00:40:24;19.90;85.10
25933;DHT22;13731;51.166;4.474;2023-09-07T00:42:53;19.80;99.90
25933;DHT22;13731;51.166;4.474;2023-09-07T00:45:18;19.90;99.90
25933;DHT22;13731;51.166;4.474;2023-09-07T00:47:45;19.80;99.90
25933;DHT22;13731;51.166;4.474;2023-09-07T00:50:11;19.80;99.90
25933;DHT22;13731;51.166;4.474;2023-09-07T00:52:42;19.80;99.90
25933;DHT22;13731;51.166;4.474;2023-09-07T00:55:09;19.70;99.90
25933;DHT22;13731;51.166;4.474;2023-09-07T00:57:36;19.70;99.90
25933;DHT22;13731;51.166;4.474;2023-09-07T01:00:04;19.70;99.90
25933;DHT22;13731;51.166;4.474;2023-09-07T01:02:32;19.60;99.90
25933;DHT22;13731;51.166;4.474;2023-09-07T01:04:58;19.60;99.90
25933;DHT22;13731;51.166;4.474;2023-09-07T01:07:30;19.60;99.90
25933;DHT22;13731;51.166;4.474;2023-09-07T01:09:59;19.50;99.90
25933;DHT22;13731;51.166;4.474;2023-09-07T01:12:25;19.40;99.90
25933;DHT22;13731;51.166;4.474;2023-09-07T01:14:51;19.50;1.00
25933;DHT22;13731;51.166;4.474;2023-09-07T01:17:19;19.40;1.00
25933;DHT22;13731;51.166;4.474;2023-09-07T01:19:48;19.40;1.00
25933;DHT22;13731;51.166;4.474;2023-09-07T01:22:21;19.30;1.00
25933;DHT22;13731;51.166;4.474;2023-09-07T01:24:50;19.40;99.90
25933;DHT22;13731;51.166;4.474;2023-09-07T01:27:18;19.30;1.00
25933;DHT22;13731;51.166;4.474;2023-09-07T01:29:44;19.30;1.00
25933;DHT22;13731;51.166;4.474;2023-09-07T01:32:10;19.20;1.00
25933;DHT22;13731;51.166;4.474;2023-09-07T01:34:36;19.20;1.00
25933;DHT22;13731;51.166;4.474;2023-09-07T01:37:02;19.10;1.00
25933;DHT22;13731;51.166;4.474;2023-09-07T01:39:28;19.00;1.00
25933;DHT22;13731;51.166;4.474;2023-09-07T01:41:54;18.90;99.90
25933;DHT22;13731;51.166;4.474;2023-09-07T01:44:20;18.80;99.90
25933;DHT22;13731;51.166;4.474;2023-09-07T01:46:45;18.70;99.90
25933;DHT22;13731;51.166;4.474;2023-09-07T01:49:14;18.70;99.90
25933;DHT22;13731;51.166;4.474;2023-09-07T01:51:40;18.60;99.90
25933;DHT22;13731;51.166;4.474;2023-09-07T01:54:06;18.50;99.90
25933;DHT22;13731;51.166;4.474;2023-09-07T01:56:32;18.50;99.90
25933;DHT22;13731;51.166;4.474;2023-09-07T01:58:58;18.50;1.00
25933;DHT22;13731;51.166;4.474;2023-09-07T02:01:27;18.40;1.00
25933;DHT22;13731;51.166;4.474;2023-09-07T02:03:55;18.40;1.00
25933;DHT22;13731;51.166;4.474;2023-09-07T02:06:21;18.30;1.00
25933;DHT22;13731;51.166;4.474;2023-09-07T02:08:47;18.30;4.80
25933;DHT22;13731;51.166;4.474;2023-09-07T02:11:14;18.20;99.90
25933;DHT22;13731;51.166;4.474;2023-09-07T02:13:45;18.10;99.90
25933;DHT22;13731;51.166;4.474;2023-09-07T02:16:11;18.00;99.90
25933;DHT22;13731;51.166;4.474;2023-09-07T02:18:37;18.00;99.90
25933;DHT22;13731;51.166;4.474;2023-09-07T02:21:09;18.00;99.90
25933;DHT22;13731;51.166;4.474;2023-09-07T02:23:35;17.90;99.90
25933;DHT22;13731;51.166;4.474;2023-09-07T02:26:04;17.90;99.90
25933;DHT22;13731;51.166;4.474;2023-09-07T02:28:30;17.90;99.90
25933;DHT22;13731;51.166;4.474;2023-09-07T02:31:03;17.80;99.90
25933;DHT22;13731;51.166;4.474;2023-09-07T02:33:29;17.80;99.90
25933;DHT22;13731;51.166;4.474;2023-09-07T02:35:55;17.80;1.00
25933;DHT22;13731;51.166;4.474;2023-09-07T02:38:21;17.70;1.00
25933;DHT22;13731;51.166;4.474;2023-09-07T02:40:47;17.70;99.90
25933;DHT22;13731;51.166;4.474;2023-09-07T02:43:14;17.70;99.90
25933;DHT22;13731;51.166;4.474;2023-09-07T02:45:39;17.60;99.90
25933;DHT22;13731;51.166;4.474;2023-09-07T02:48:05;17.70;99.90
25933;DHT22;13731;51.166;4.474;2023-09-07T02:50:33;17.70;99.90
25933;DHT22;13731;51.166;4.474;2023-09-07T02:53:00;17.60;99.90
25933;DHT22;13731;51.166;4.474;2023-09-07T02:55:28;17.60;99.90
25933;DHT22;13731;51.166;4.474;2023-09-07T02:57:56;17.60;99.90
25933;DHT22;13731;51.166;4.474;2023-09-07T03:00:23;17.70;99.90
25933;DHT22;13731;51.166;4.474;2023-09-07T03:02:49;17.60;99.90
25933;DHT22;13731;51.166;4.474;2023-09-07T03:05:16;17.60;99.90
25933;DHT22;13731;51.166;4.474;2023-09-07T03:07:45;17.60;99.90
25933;DHT22;13731;51.166;4.474;2023-09-07T03:10:11;17.60;99.90
25933;DHT22;13731;51.166;4.474;2023-09-07T03:12:39;17.60;99.90
25933;DHT22;13731;51.166;4.474;2023-09-07T03:15:06;17.60;99.90
25933;DHT22;13731;51.166;4.474;2023-09-07T03:17:32;17.70;99.90
25933;DHT22;13731;51.166;4.474;2023-09-07T03:19:58;17.70;99.90
25933;DHT22;13731;51.166;4.474;2023-09-07T03:22:24;17.70;99.90
25933;DHT22;13731;51.166;4.474;2023-09-07T03:24:51;17.70;99.90
25933;DHT22;13731;51.166;4.474;2023-09-07T03:27:17;17.70;99.90
25933;DHT22;13731;51.166;4.474;2023-09-07T03:29:44;17.70;99.90
25933;DHT22;13731;51.166;4.474;2023-09-07T03:32:10;17.70;99.90
25933;DHT22;13731;51.166;4.474;2023-09-07T03:34:36;17.70;99.90
25933;DHT22;13731;51.166;4.474;2023-09-07T03:37:02;17.70;99.90
25933;DHT22;13731;51.166;4.474;2023-09-07T03:39:32;17.60;99.90
25933;DHT22;13731;51.166;4.474;2023-09-07T03:41:59;17.60;99.90
25933;DHT22;13731;51.166;4.474;2023-09-07T03:44:25;17.50;99.90
25933;DHT22;13731;51.166;4.474;2023-09-07T03:46:51;17.50;99.90
25933;DHT22;13731;51.166;4.474;2023-09-07T03:49:17;17.50;99.90
25933;DHT22;13731;51.166;4.474;2023-09-07T03:51:43;17.50;99.90
25933;DHT22;13731;51.166;4.474;2023-09-07T03:54:09;17.40;1.00
25933;DHT22;13731;51.166;4.474;2023-09-07T03:56:35;17.40;1.00
25933;DHT22;13731;51.166;4.474;2023-09-07T03:59:01;17.40;99.90
25933;DHT22;13731;51.166;4.474;2023-09-07T04:01:27;17.40;1.00
25933;DHT22;13731;51.166;4.474;2023-09-07T04:03:53;17.40;1.00
25933;DHT22;13731;51.166;4.474;2023-09-07T04:06:19;17.40;3.30
25933;DHT22;13731;51.166;4.474;2023-09-07T04:08:45;17.40;1.00
25933;DHT22;13731;51.166;4.474;2023-09-07T04:11:11;17.40;72.30
25933;DHT22;13731;51.166;4.474;2023-09-07T04:13:36;17.40;1.20
25933;DHT22;13731;51.166;4.474;2023-09-07T04:16:02;17.40;1.00
25933;DHT22;13731;51.166;4.474;2023-09-07T04:18:28;17.30;44.00
25933;DHT22;13731;51.166;4.474;2023-09-07T04:21:04;17.20;68.70
25933;DHT22;13731;51.166;4.474;2023-09-07T04:23:31;17.20;99.90
25933;DHT22;13731;51.166;4.474;2023-09-07T04:26:07;17.20;99.90
25933;DHT22;13731;51.166;4.474;2023-09-07T04:28:34;17.20;92.40
25933;DHT22;13731;51.166;4.474;2023-09-07T04:31:00;17.10;99.90
25933;DHT22;13731;51.166;4.474;2023-09-07T04:33:29;17.10;99.90
25933;DHT22;13731;51.166;4.474;2023-09-07T04:35:55;17.10;99.90
25933;DHT22;13731;51.166;4.474;2023-09-07T04:38:21;17.10;99.90
25933;DHT22;13731;51.166;4.474;2023-09-07T04:40:48;17.10;8.60
25933;DHT22;13731;51.166;4.474;2023-09-07T04:43:14;17.10;1.00
25933;DHT22;13731;51.166;4.474;2023-09-07T04:45:46;17.00;99.90
25933;DHT22;13731;51.166;4.474;2023-09-07T04:48:13;16.90;1.00
25933;DHT22;13731;51.166;4.474;2023-09-07T04:50:38;16.90;1.00
25933;DHT22;13731;51.166;4.474;2023-09-07T04:53:04;16.90;1.00
25933;DHT22;13731;51.166;4.474;2023-09-07T04:55:30;16.90;1.00
25933;DHT22;13731;51.166;4.474;2023-09-07T04:57:55;16.90;1.00
25933;DHT22;13731;51.166;4.474;2023-09-07T05:00:21;17.00;99.90
25933;DHT22;13731;51.166;4.474;2023-09-07T05:02:48;16.90;1.00
25933;DHT22;13731;51.166;4.474;2023-09-07T05:05:14;16.80;99.90
25933;DHT22;13731;51.166;4.474;2023-09-07T05:07:40;16.80;99.90
25933;DHT22;13731;51.166;4.474;2023-09-07T05:10:07;16.70;99.90
25933;DHT22;13731;51.166;4.474;2023-09-07T05:12:34;16.80;99.90
25933;DHT22;13731;51.166;4.474;2023-09-07T05:15:00;16.80;99.90
25933;DHT22;13731;51.166;4.474;2023-09-07T05:17:26;16.80;99.90
25933;DHT22;13731;51.166;4.474;2023-09-07T05:19:52;16.90;99.90
25933;DHT22;13731;51.166;4.474;2023-09-07T05:22:18;16.90;99.90
25933;DHT22;13731;51.166;4.474;2023-09-07T05:24:46;16.90;99.90
25933;DHT22;13731;51.166;4.474;2023-09-07T05:27:13;17.00;9.10
25933;DHT22;13731;51.166;4.474;2023-09-07T05:29:39;17.10;1.00
25933;DHT22;13731;51.166;4.474;2023-09-07T05:32:05;17.00;1.00
25933;DHT22;13731;51.166;4.474;2023-09-07T05:34:32;17.00;1.00
25933;DHT22;13731;51.166;4.474;2023-09-07T05:36:57;17.00;1.00
25933;DHT22;13731;51.166;4.474;2023-09-07T05:39:23;17.10;1.00
25933;DHT22;13731;51.166;4.474;2023-09-07T05:41:49;17.10;1.00
25933;DHT22;13731;51.166;4.474;2023-09-07T05:44:15;17.10;1.00
25933;DHT22;13731;51.166;4.474;2023-09-07T05:46:41;17.10;1.00
25933;DHT22;13731;51.166;4.474;2023-09-07T05:49:08;17.10;1.00
25933;DHT22;13731;51.166;4.474;2023-09-07T05:51:34;17.10;1.00
25933;DHT22;13731;51.166;4.474;2023-09-07T05:53:59;17.20;1.00
25933;DHT22;13731;51.166;4.474;2023-09-07T05:56:25;17.20;99.90
25933;DHT22;13731;51.166;4.474;2023-09-07T05:58:51;17.30;1.00
25933;DHT22;13731;51.166;4.474;2023-09-07T06:01:17;17.40;99.90
25933;DHT22;13731;51.166;4.474;2023-09-07T06:03:43;17.40;99.90
25933;DHT22;13731;51.166;4.474;2023-09-07T06:06:09;17.40;1.00
25933;DHT22;13731;51.166;4.474;2023-09-07T06:08:35;17.50;1.00
25933;DHT22;13731;51.166;4.474;2023-09-07T06:11:01;17.60;99.90
25933;DHT22;13731;51.166;4.474;2023-09-07T06:13:27;17.70;99.90
25933;DHT22;13731;51.166;4.474;2023-09-07T06:15:53;17.80;99.90
25933;DHT22;13731;51.166;4.474;2023-09-07T06:18:19;17.90;1.00
25933;DHT22;13731;51.166;4.474;2023-09-07T06:20:45;18.00;1.00
25933;DHT22;13731;51.166;4.474;2023-09-07T06:23:12;18.10;1.00
25933;DHT22;13731;51.166;4.474;2023-09-07T06:25:38;18.10;1.00
25933;DHT22;13731;51.166;4.474;2023-09-07T06:28:04;18.10;99.90
25933;DHT22;13731;51.166;4.474;2023-09-07T06:30:31;18.20;99.90
25933;DHT22;13731;51.166;4.474;2023-09-07T06:32:56;18.30;99.90
25933;DHT22;13731;51.166;4.474;2023-09-07T06:35:24;18.50;99.90
25933;DHT22;13731;51.166;4.474;2023-09-07T06:37:49;18.50;26.60
25933;DHT22;13731;51.166;4.474;2023-09-07T06:40:19;18.60;1.00
25933;DHT22;13731;51.166;4.474;2023-09-07T06:42:48;18.80;1.00
25933;DHT22;13731;51.166;4.474;2023-09-07T06:45:16;19.30;99.90
25933;DHT22;13731;51.166;4.474;2023-09-07T06:47:42;19.90;1.00
25933;DHT22;13731;51.166;4.474;2023-09-07T06:50:09;20.00;99.90
25933;DHT22;13731;51.166;4.474;2023-09-07T06:52:35;20.20;99.90
25933;DHT22;13731;51.166;4.474;2023-09-07T06:55:01;20.00;99.90
25933;DHT22;13731;51.166;4.474;2023-09-07T06:57:27;19.80;99.90
25933;DHT22;13731;51.166;4.474;2023-09-07T06:59:53;19.70;99.90
25933;DHT22;13731;51.166;4.474;2023-09-07T07:02:20;19.60;1.00
25933;DHT22;13731;51.166;4.474;2023-09-07T07:04:46;19.60;1.00
25933;DHT22;13731;51.166;4.474;2023-09-07T07:07:13;19.60;1.00
25933;DHT22;13731;51.166;4.474;2023-09-07T07:09:40;19.70;1.00
25933;DHT22;13731;51.166;4.474;2023-09-07T07:12:09;19.80;1.00
25933;DHT22;13731;51.166;4.474;2023-09-07T07:14:36;20.00;1.00
25933;DHT22;13731;51.166;4.474;2023-09-07T07:17:02;20.10;99.90
25933;DHT22;13731;51.166;4.474;2023-09-07T07:19:31;20.20;99.90
25933;DHT22;13731;51.166;4.474;2023-09-07T07:21:57;20.30;99.90
25933;DHT22;13731;51.166;4.474;2023-09-07T07:24:23;20.40;99.90
25933;DHT22;13731;51.166;4.474;2023-09-07T07:26:50;20.40;99.90
25933;DHT22;13731;51.166;4.474;2023-09-07T07:29:15;20.50;99.90
25933;DHT22;13731;51.166;4.474;2023-09-07T07:31:42;20.60;99.90
25933;DHT22;13731;51.166;4.474;2023-09-07T07:34:08;20.70;99.90
25933;DHT22;13731;51.166;4.474;2023-09-07T07:36:34;20.80;56.00
25933;DHT22;13731;51.166;4.474;2023-09-07T07:39:03;21.00;30.00
25933;DHT22;13731;51.166;4.474;2023-09-07T07:41:29;21.00;20.20
25933;DHT22;13731;51.166;4.474;2023-09-07T07:43:55;21.00;1.00
25933;DHT22;13731;51.166;4.474;2023-09-07T07:46:22;21.10;1.00
25933;DHT22;13731;51.166;4.474;2023-09-07T07:48:47;21.20;1.00
25933;DHT22;13731;51.166;4.474;2023-09-07T07:51:14;21.30;1.00
25933;DHT22;13731;51.166;4.474;2023-09-07T07:53:42;21.50;1.00
25933;DHT22;13731;51.166;4.474;2023-09-07T07:56:16;21.50;1.00
25933;DHT22;13731;51.166;4.474;2023-09-07T07:58:43;21.60;1.00
25933;DHT22;13731;51.166;4.474;2023-09-07T08:01:18;21.70;1.00
25933;DHT22;13731;51.166;4.474;2023-09-07T08:03:46;21.90;1.00
25933;DHT22;13731;51.166;4.474;2023-09-07T08:06:12;22.00;1.00
25933;DHT22;13731;51.166;4.474;2023-09-07T08:08:39;22.00;1.00
25933;DHT22;13731;51.166;4.474;2023-09-07T08:11:05;22.00;1.00
25933;DHT22;13731;51.166;4.474;2023-09-07T08:13:34;22.10;1.00
25933;DHT22;13731;51.166;4.474;2023-09-07T08:16:01;22.20;1.00
25933;DHT22;13731;51.166;4.474;2023-09-07T08:18:27;22.30;1.00
25933;DHT22;13731;51.166;4.474;2023-09-07T08:20:54;22.40;99.90
25933;DHT22;13731;51.166;4.474;2023-09-07T08:23:21;22.40;1.00
25933;DHT22;13731;51.166;4.474;2023-09-07T08:25:50;22.60;1.00
25933;DHT22;13731;51.166;4.474;2023-09-07T08:28:16;22.60;99.90
25933;DHT22;13731;51.166;4.474;2023-09-07T08:30:44;22.70;99.90
25933;DHT22;13731;51.166;4.474;2023-09-07T08:33:10;22.90;99.90
25933;DHT22;13731;51.166;4.474;2023-09-07T08:35:36;23.10;99.90
25933;DHT22;13731;51.166;4.474;2023-09-07T08:38:10;23.20;99.90
25933;DHT22;13731;51.166;4.474;2023-09-07T08:40:37;23.40;99.90
25933;DHT22;13731;51.166;4.474;2023-09-07T08:43:08;23.50;99.90
25933;DHT22;13731;51.166;4.474;2023-09-07T08:45:43;23.60;99.90
25933;DHT22;13731;51.166;4.474;2023-09-07T08:48:13;23.60;99.90
25933;DHT22;13731;51.166;4.474;2023-09-07T08:50:45;23.70;99.90
25933;DHT22;13731;51.166;4.474;2023-09-07T08:53:17;23.80;99.90
25933;DHT22;13731;51.166;4.474;2023-09-07T08:55:44;24.00;99.90
25933;DHT22;13731;51.166;4.474;2023-09-07T08:58:10;24.10;99.90
25933;DHT22;13731;51.166;4.474;2023-09-07T09:00:37;24.20;99.90
25933;DHT22;13731;51.166;4.474;2023-09-07T09:03:03;24.20;99.90
25933;DHT22;13731;51.166;4.474;2023-09-07T09:05:32;24.20;99.90
25933;DHT22;13731;51.166;4.474;2023-09-07T09:08:03;24.20;99.90
25933;DHT22;13731;51.166;4.474;2023-09-07T09:10:30;24.30;99.90
25933;DHT22;13731;51.166;4.474;2023-09-07T09:12:55;24.30;99.90
25933;DHT22;13731;51.166;4.474;2023-09-07T09:15:22;24.30;99.90
25933;DHT22;13731;51.166;4.474;2023-09-07T09:17:48;24.50;99.90
25933;DHT22;13731;51.166;4.474;2023-09-07T09:20:24;24.50;99.90
25933;DHT22;13731;51.166;4.474;2023-09-07T09:22:53;24.60;99.90
25933;DHT22;13731;51.166;4.474;2023-09-07T09:25:19;24.70;99.90
25933;DHT22;13731;51.166;4.474;2023-09-07T09:27:46;24.80;99.90
25933;DHT22;13731;51.166;4.474;2023-09-07T09:30:12;24.90;99.90
25933;DHT22;13731;51.166;4.474;2023-09-07T09:32:41;25.10;99.90
25933;DHT22;13731;51.166;4.474;2023-09-07T09:35:08;25.10;93.70
25933;DHT22;13731;51.166;4.474;2023-09-07T09:37:43;25.30;91.70
25933;DHT22;13731;51.166;4.474;2023-09-07T09:40:10;25.50;90.00
25933;DHT22;13731;51.166;4.474;2023-09-07T09:42:36;25.50;73.90
25933;DHT22;13731;51.166;4.474;2023-09-07T09:45:05;25.60;58.90
25933;DHT22;13731;51.166;4.474;2023-09-07T09:47:33;25.70;62.00
25933;DHT22;13731;51.166;4.474;2023-09-07T09:50:02;25.80;56.00
25933;DHT22;13731;51.166;4.474;2023-09-07T09:52:32;26.00;48.60
25933;DHT22;13731;51.166;4.474;2023-09-07T09:55:00;26.10;44.50
25933;DHT22;13731;51.166;4.474;2023-09-07T09:57:26;26.10;33.30
25933;DHT22;13731;51.166;4.474;2023-09-07T09:59:55;26.10;31.70
25933;DHT22;13731;51.166;4.474;2023-09-07T10:02:21;26.30;31.50
25933;DHT22;13731;51.166;4.474;2023-09-07T10:04:47;26.60;24.80
25933;DHT22;13731;51.166;4.474;2023-09-07T10:07:19;27.10;19.20
25933;DHT22;13731;51.166;4.474;2023-09-07T10:09:45;28.70;1.00
25933;DHT22;13731;51.166;4.474;2023-09-07T10:12:13;30.90;1.00
25933;DHT22;13731;51.166;4.474;2023-09-07T10:14:42;33.40;1.00
25933;DHT22;13731;51.166;4.474;2023-09-07T10:17:10;33.90;1.00
25933;DHT22;13731;51.166;4.474;2023-09-07T10:19:47;34.80;1.00
25933;DHT22;13731;51.166;4.474;2023-09-07T10:22:23;34.90;1.00
25933;DHT22;13731;51.166;4.474;2023-09-07T10:24:57;36.00;1.00
25933;DHT22;13731;51.166;4.474;2023-09-07T10:27:23;36.20;1.00
25933;DHT22;13731;51.166;4.474;2023-09-07T10:29:52;35.50;1.00
25933;DHT22;13731;51.166;4.474;2023-09-07T10:32:18;35.90;1.00
25933;DHT22;13731;51.166;4.474;2023-09-07T10:34:44;36.60;1.00
25933;DHT22;13731;51.166;4.474;2023-09-07T10:37:13;37.20;1.00
25933;DHT22;13731;51.166;4.474;2023-09-07T10:39:44;37.20;1.00
25933;DHT22;13731;51.166;4.474;2023-09-07T10:42:26;36.00;1.00
25933;DHT22;13731;51.166;4.474;2023-09-07T10:44:52;35.90;1.00
25933;DHT22;13731;51.166;4.474;2023-09-07T10:47:18;36.90;1.00
25933;DHT22;13731;51.166;4.474;2023-09-07T10:49:44;34.90;1.00
25933;DHT22;13731;51.166;4.474;2023-09-07T10:52:10;36.20;1.00
25933;DHT22;13731;51.166;4.474;2023-09-07T10:54:36;36.80;1.00
25933;DHT22;13731;51.166;4.474;2023-09-07T10:57:09;37.80;1.00
25933;DHT22;13731;51.166;4.474;2023-09-07T10:59:35;37.00;1.00
25933;DHT22;13731;51.166;4.474;2023-09-07T11:02:05;37.60;1.00
25933;DHT22;13731;51.166;4.474;2023-09-07T11:04:31;37.20;1.00
25933;DHT22;13731;51.166;4.474;2023-09-07T11:06:57;37.50;1.00
25933;DHT22;13731;51.166;4.474;2023-09-07T11:09:23;36.90;1.00
25933;DHT22;13731;51.166;4.474;2023-09-07T11:11:49;37.20;1.00
25933;DHT22;13731;51.166;4.474;2023-09-07T11:14:14;36.40;1.00
25933;DHT22;13731;51.166;4.474;2023-09-07T11:16:40;36.60;1.00
25933;DHT22;13731;51.166;4.474;2023-09-07T11:19:07;37.30;1.00
25933;DHT22;13731;51.166;4.474;2023-09-07T11:21:36;36.80;1.00
25933;DHT22;13731;51.166;4.474;2023-09-07T11:24:03;36.80;1.00
25933;DHT22;13731;51.166;4.474;2023-09-07T11:26:45;37.00;1.00
25933;DHT22;13731;51.166;4.474;2023-09-07T11:29:17;39.30;1.00
25933;DHT22;13731;51.166;4.474;2023-09-07T11:31:45;39.10;1.00
25933;DHT22;13731;51.166;4.474;2023-09-07T11:34:15;38.30;1.00
25933;DHT22;13731;51.166;4.474;2023-09-07T11:36:41;37.50;1.00
25933;DHT22;13731;51.166;4.474;2023-09-07T11:39:08;37.20;1.00
25933;DHT22;13731;51.166;4.474;2023-09-07T11:41:43;36.30;1.00
25933;DHT22;13731;51.166;4.474;2023-09-07T11:44:10;37.20;1.00
25933;DHT22;13731;51.166;4.474;2023-09-07T11:46:37;37.90;1.00
25933;DHT22;13731;51.166;4.474;2023-09-07T11:49:03;37.90;1.00
25933;DHT22;13731;51.166;4.474;2023-09-07T11:51:30;38.60;1.00
25933;DHT22;13731;51.166;4.474;2023-09-07T11:53:56;37.90;1.00
25933;DHT22;13731;51.166;4.474;2023-09-07T11:56:22;37.50;1.00
25933;DHT22;13731;51.166;4.474;2023-09-07T11:58:48;38.20;1.00
25933;DHT22;13731;51.166;4.474;2023-09-07T12:01:14;37.00;1.00
25933;DHT22;13731;51.166;4.474;2023-09-07T12:03:42;38.70;1.00
25933;DHT22;13731;51.166;4.474;2023-09-07T12:06:09;39.00;1.00
25933;DHT22;13731;51.166;4.474;2023-09-07T12:08:36;38.00;1.00
25933;DHT22;13731;51.166;4.474;2023-09-07T12:11:01;38.30;1.00
25933;DHT22;13731;51.166;4.474;2023-09-07T12:13:27;39.30;1.00
25933;DHT22;13731;51.166;4.474;2023-09-07T12:15:53;38.70;1.00
25933;DHT22;13731;51.166;4.474;2023-09-07T12:18:19;39.20;1.00
25933;DHT22;13731;51.166;4.474;2023-09-07T12:20:44;39.30;1.00
25933;DHT22;13731;51.166;4.474;2023-09-07T12:23:10;38.10;1.00
25933;DHT22;13731;51.166;4.474;2023-09-07T12:25:36;38.60;1.00
25933;DHT22;13731;51.166;4.474;2023-09-07T12:28:03;37.90;1.00
25933;DHT22;13731;51.166;4.474;2023-09-07T12:30:29;38.20;1.00
25933;DHT22;13731;51.166;4.474;2023-09-07T12:32:55;39.20;1.00
25933;DHT22;13731;51.166;4.474;2023-09-07T12:35:21;39.30;1.00
25933;DHT22;13731;51.166;4.474;2023-09-07T12:37:47;39.90;1.00
25933;DHT22;13731;51.166;4.474;2023-09-07T12:40:13;39.60;1.00
25933;DHT22;13731;51.166;4.474;2023-09-07T12:42:43;39.60;1.00
25933;DHT22;13731;51.166;4.474;2023-09-07T12:45:10;40.70;1.00
25933;DHT22;13731;51.166;4.474;2023-09-07T12:47:36;41.30;1.00
25933;DHT22;13731;51.166;4.474;2023-09-07T12:50:02;39.80;1.00
25933;DHT22;13731;51.166;4.474;2023-09-07T12:52:30;40.90;1.00
25933;DHT22;13731;51.166;4.474;2023-09-07T12:54:56;41.40;1.00
25933;DHT22;13731;51.166;4.474;2023-09-07T12:57:22;40.30;1.00
25933;DHT22;13731;51.166;4.474;2023-09-07T12:59:48;39.20;1.00
25933;DHT22;13731;51.166;4.474;2023-09-07T13:02:14;40.30;1.00
25933;DHT22;13731;51.166;4.474;2023-09-07T13:04:40;41.40;1.00
25933;DHT22;13731;51.166;4.474;2023-09-07T13:07:06;41.70;1.00
25933;DHT22;13731;51.166;4.474;2023-09-07T13:09:32;41.20;1.00
25933;DHT22;13731;51.166;4.474;2023-09-07T13:11:58;42.10;1.00
25933;DHT22;13731;51.166;4.474;2023-09-07T13:14:23;42.30;1.00
25933;DHT22;13731;51.166;4.474;2023-09-07T13:16:49;42.30;1.00
25933;DHT22;13731;51.166;4.474;2023-09-07T13:19:16;43.50;1.00
25933;DHT22;13731;51.166;4.474;2023-09-07T13:21:42;42.40;1.00
25933;DHT22;13731;51.166;4.474;2023-09-07T13:24:08;41.70;1.00
25933;DHT22;13731;51.166;4.474;2023-09-07T13:26:33;42.10;1.00
25933;DHT22;13731;51.166;4.474;2023-09-07T13:28:59;43.00;1.00
25933;DHT22;13731;51.166;4.474;2023-09-07T13:31:25;42.60;1.00
25933;DHT22;13731;51.166;4.474;2023-09-07T13:33:51;43.00;1.00
25933;DHT22;13731;51.166;4.474;2023-09-07T13:36:17;44.50;1.00
25933;DHT22;13731;51.166;4.474;2023-09-07T13:38:42;44.10;1.00
25933;DHT22;13731;51.166;4.474;2023-09-07T13:41:09;42.30;1.00
25933;DHT22;13731;51.166;4.474;2023-09-07T13:43:35;42.40;1.00
25933;DHT22;13731;51.166;4.474;2023-09-07T13:46:01;41.30;1.00
25933;DHT22;13731;51.166;4.474;2023-09-07T13:48:26;41.30;1.00
25933;DHT22;13731;51.166;4.474;2023-09-07T13:50:53;41.20;1.00
25933;DHT22;13731;51.166;4.474;2023-09-07T13:53:18;41.50;1.00
25933;DHT22;13731;51.166;4.474;2023-09-07T13:55:44;43.80;1.00
25933;DHT22;13731;51.166;4.474;2023-09-07T13:58:12;44.10;1.00
25933;DHT22;13731;51.166;4.474;2023-09-07T14:00:38;42.60;1.00
25933;DHT22;13731;51.166;4.474;2023-09-07T14:03:04;42.90;1.00
25933;DHT22;13731;51.166;4.474;2023-09-07T14:05:30;41.70;1.00
25933;DHT22;13731;51.166;4.474;2023-09-07T14:07:55;42.00;1.00
25933;DHT22;13731;51.166;4.474;2023-09-07T14:10:22;41.90;1.00
25933;DHT22;13731;51.166;4.474;2023-09-07T14:12:48;42.40;1.00
25933;DHT22;13731;51.166;4.474;2023-09-07T14:15:14;41.50;1.00
25933;DHT22;13731;51.166;4.474;2023-09-07T14:17:40;42.40;1.00
25933;DHT22;13731;51.166;4.474;2023-09-07T14:20:06;41.10;1.00
25933;DHT22;13731;51.166;4.474;2023-09-07T14:22:32;41.90;1.00
25933;DHT22;13731;51.166;4.474;2023-09-07T14:24:58;42.60;1.00
25933;DHT22;13731;51.166;4.474;2023-09-07T14:27:24;41.70;1.00
25933;DHT22;13731;51.166;4.474;2023-09-07T14:29:52;42.40;1.00
25933;DHT22;13731;51.166;4.474;2023-09-07T14:32:18;42.50;1.00
25933;DHT22;13731;51.166;4.474;2023-09-07T14:34:44;42.00;1.00
25933;DHT22;13731;51.166;4.474;2023-09-07T14:37:10;40.90;1.00
25933;DHT22;13731;51.166;4.474;2023-09-07T14:39:35;42.40;1.00
25933;DHT22;13731;51.166;4.474;2023-09-07T14:42:01;41.00;1.00
25933;DHT22;13731;51.166;4.474;2023-09-07T14:44:27;42.70;1.00
25933;DHT22;13731;51.166;4.474;2023-09-07T14:46:53;42.70;1.00
25933;DHT22;13731;51.166;4.474;2023-09-07T14:49:19;43.10;1.00
25933;DHT22;13731;51.166;4.474;2023-09-07T14:51:46;41.30;1.00
25933;DHT22;13731;51.166;4.474;2023-09-07T14:54:13;40.40;1.00
25933;DHT22;13731;51.166;4.474;2023-09-07T14:56:39;40.40;1.00
25933;DHT22;13731;51.166;4.474;2023-09-07T14:59:06;40.90;1.00
25933;DHT22;13731;51.166;4.474;2023-09-07T15:01:32;43.00;1.00
25933;DHT22;13731;51.166;4.474;2023-09-07T15:03:58;43.60;1.00
25933;DHT22;13731;51.166;4.474;2023-09-07T15:06:24;45.00;1.00
25933;DHT22;13731;51.166;4.474;2023-09-07T15:08:50;45.40;1.00
25933;DHT22;13731;51.166;4.474;2023-09-07T15:11:16;46.40;1.00
25933;DHT22;13731;51.166;4.474;2023-09-07T15:13:42;46.90;1.00
25933;DHT22;13731;51.166;4.474;2023-09-07T15:16:08;46.60;1.00
25933;DHT22;13731;51.166;4.474;2023-09-07T15:18:34;46.70;1.00
25933;DHT22;13731;51.166;4.474;2023-09-07T15:21:00;45.70;1.00
25933;DHT22;13731;51.166;4.474;2023-09-07T15:23:26;45.20;1.00
25933;DHT22;13731;51.166;4.474;2023-09-07T15:25:52;44.80;1.00
25933;DHT22;13731;51.166;4.474;2023-09-07T15:28:18;44.00;1.00
25933;DHT22;13731;51.166;4.474;2023-09-07T15:30:44;45.00;1.00
25933;DHT22;13731;51.166;4.474;2023-09-07T15:33:10;46.50;1.00
25933;DHT22;13731;51.166;4.474;2023-09-07T15:35:36;47.30;1.00
25933;DHT22;13731;51.166;4.474;2023-09-07T15:38:01;45.50;1.00